Colborne, Canada
Current Conditions -  °F | °C
As of 3:00 PM on Thursday 27 Nov 2014 (Local Time) from CYTR Reporting Station
Snow Showers Snow Showers  
Wind Chill: 25°   Ceiling: 1700
Heat Index: 30°   Visibility: 15mi
Dew Point: 23°   Wind: 5mph
Humidity: 75%   Direction: 240°WSW
Pressure: 30.04"   Gusts: NA
Location:  44.02°N, 77.88°W
Report Text: CYTR 272000Z 24004KT 15SM -SHSN OVC017 M01/M05 A3004 RMK SC8 SLP179
Loading
Personal Weather Stations






























Interactive Weather Map New forecast layout! Learn more

10-Day Weather Forecast

Advertisements
Track Severe Weather on mobile